createdAt,value
2023-03-22T00:01:19.449Z,60.53
2023-03-22T00:03:47.821Z,60.76
2023-03-22T00:06:16.339Z,60.31
2023-03-22T00:08:44.492Z,60.19
2023-03-22T00:11:12.821Z,59.92
2023-03-22T00:13:42.935Z,60.44
2023-03-22T00:16:10.955Z,60.99
2023-03-22T00:18:37.985Z,61.20
2023-03-22T00:21:05.970Z,61.14
2023-03-22T00:23:32.913Z,61.63
2023-03-22T00:25:59.801Z,61.46
2023-03-22T00:28:26.759Z,61.88
2023-03-22T00:31:00.885Z,61.73
2023-03-22T00:33:29.663Z,61.73
2023-03-22T00:36:06.704Z,61.77
2023-03-22T00:38:44.957Z,61.66
2023-03-22T00:41:18.823Z,61.43
2023-03-22T00:43:47.663Z,61.81
2023-03-22T00:46:17.174Z,61.66
2023-03-22T00:48:44.112Z,62.04
2023-03-22T00:51:13.512Z,61.18
2023-03-22T00:53:43.009Z,61.59
2023-03-22T00:56:16.605Z,61.79
2023-03-22T00:58:43.841Z,61.79
2023-03-22T01:01:14.592Z,61.82
2023-03-22T01:03:43.656Z,61.83
2023-03-22T01:06:11.623Z,61.75
2023-03-22T01:08:39.425Z,61.54
2023-03-22T01:11:07.717Z,61.40
2023-03-22T01:13:37.769Z,61.22
2023-03-22T01:16:06.699Z,61.28
2023-03-22T01:18:34.031Z,61.43
2023-03-22T01:21:01.277Z,61.73
2023-03-22T01:23:28.585Z,61.83
2023-03-22T01:25:55.547Z,60.91
2023-03-22T01:28:22.820Z,60.99
2023-03-22T01:30:50.983Z,60.32
2023-03-22T01:33:18.072Z,60.66
2023-03-22T01:35:45.226Z,61.00
2023-03-22T01:38:12.526Z,60.91
2023-03-22T01:40:39.761Z,61.16
2023-03-22T01:43:15.663Z,61.82
2023-03-22T01:46:00.964Z,62.11
2023-03-22T01:48:42.094Z,62.11
2023-03-22T01:51:15.262Z,62.24
2023-03-22T01:53:55.358Z,62.02
2023-03-22T01:56:26.924Z,62.06
2023-03-22T01:58:55.158Z,62.35
2023-03-22T02:01:23.290Z,62.14
2023-03-22T02:04:15.492Z,62.38
2023-03-22T02:06:42.749Z,61.52
2023-03-22T02:09:12.890Z,61.30
2023-03-22T02:11:50.181Z,60.99
2023-03-22T02:14:58.918Z,60.87
2023-03-22T02:17:37.591Z,60.81
2023-03-22T02:20:28.181Z,60.25
2023-03-22T02:23:47.879Z,59.98
2023-03-22T02:26:59.452Z,60.51
2023-03-22T02:30:02.958Z,61.18
2023-03-22T02:32:45.549Z,61.10
2023-03-22T02:35:38.648Z,61.86
2023-03-22T02:38:19.989Z,61.89
2023-03-22T02:41:06.236Z,61.89
2023-03-22T02:44:23.053Z,62.41
2023-03-22T02:47:06.665Z,62.67
2023-03-22T02:49:49.366Z,62.39
2023-03-22T02:52:35.904Z,62.62
2023-03-22T02:55:40.283Z,62.48
2023-03-22T02:58:39.352Z,62.88
2023-03-22T03:01:10.494Z,62.71
2023-03-22T03:03:39.555Z,62.37
2023-03-22T03:06:15.134Z,61.79
2023-03-22T03:08:44.213Z,61.75
2023-03-22T03:11:11.045Z,61.57
2023-03-22T03:13:38.208Z,62.08
2023-03-22T03:16:07.854Z,61.94
2023-03-22T03:18:54.544Z,62.21
2023-03-22T03:21:30.308Z,62.04
2023-03-22T03:24:13.375Z,61.97
2023-03-22T03:27:06.733Z,62.31
2023-03-22T03:30:00.204Z,62.33
2023-03-22T03:32:35.512Z,62.17
2023-03-22T03:35:25.379Z,62.31
2023-03-22T03:37:57.659Z,62.79
2023-03-22T03:40:31.263Z,62.58
2023-03-22T03:43:02.898Z,62.32
2023-03-22T03:45:30.814Z,62.08
2023-03-22T03:48:01.388Z,62.38
2023-03-22T03:50:28.621Z,62.61
2023-03-22T03:52:56.339Z,62.83
2023-03-22T03:55:24.332Z,62.75
2023-03-22T03:57:51.232Z,62.29
2023-03-22T04:00:19.232Z,62.39
2023-03-22T04:02:46.122Z,62.46
2023-03-22T04:05:13.629Z,62.31
2023-03-22T04:07:41.192Z,62.89
2023-03-22T04:10:08.655Z,62.37
2023-03-22T04:12:35.880Z,62.83
2023-03-22T04:15:02.751Z,62.80
2023-03-22T04:17:29.592Z,62.47
2023-03-22T04:19:56.757Z,62.79
2023-03-22T04:22:25.043Z,62.39
2023-03-22T04:24:51.886Z,62.54
2023-03-22T04:27:20.868Z,62.53
2023-03-22T04:29:51.115Z,62.86
2023-03-22T04:32:19.192Z,61.97
2023-03-22T04:34:49.012Z,62.13
2023-03-22T04:37:16.647Z,61.88
2023-03-22T04:39:43.805Z,61.81
2023-03-22T04:42:11.219Z,61.82
2023-03-22T04:44:38.111Z,62.17
2023-03-22T04:47:04.967Z,62.30
2023-03-22T04:49:31.952Z,62.01
2023-03-22T04:51:59.163Z,62.03
2023-03-22T04:54:26.102Z,62.08
2023-03-22T04:56:52.961Z,62.11
2023-03-22T04:59:20.526Z,61.84
2023-03-22T05:01:48.820Z,61.89
2023-03-22T05:04:19.787Z,62.23
2023-03-22T05:06:47.021Z,62.61
2023-03-22T05:09:14.266Z,62.31
2023-03-22T05:11:41.661Z,62.66
2023-03-22T05:14:09.302Z,62.29
2023-03-22T05:16:36.463Z,62.47
2023-03-22T05:19:03.474Z,62.80
2023-03-22T05:21:36.752Z,62.90
2023-03-22T05:24:04.406Z,62.76
2023-03-22T05:26:31.404Z,62.76
2023-03-22T05:28:58.246Z,62.18
2023-03-22T05:31:25.214Z,62.11
2023-03-22T05:33:52.854Z,62.00
2023-03-22T05:36:22.975Z,62.26
2023-03-22T05:38:50.538Z,62.22
2023-03-22T05:41:17.513Z,62.04
2023-03-22T05:43:45.073Z,62.16
2023-03-22T05:46:12.756Z,62.79
2023-03-22T05:48:41.057Z,62.63
2023-03-22T05:51:10.135Z,62.43
2023-03-22T05:53:37.248Z,62.49
2023-03-22T05:56:04.440Z,62.09
2023-03-22T05:58:33.825Z,61.68
2023-03-22T06:01:13.098Z,62.54
2023-03-22T06:03:40.252Z,61.80
2023-03-22T06:06:13.612Z,61.54
2023-03-22T06:08:40.917Z,61.53
2023-03-22T06:11:08.673Z,60.62
2023-03-22T06:13:35.554Z,60.25
2023-03-22T06:16:04.925Z,60.01
2023-03-22T06:18:33.033Z,58.71
2023-03-22T06:21:00.748Z,58.22
2023-03-22T06:23:28.194Z,58.08
2023-03-22T06:25:55.419Z,57.61
2023-03-22T06:28:22.286Z,57.48
2023-03-22T06:30:49.141Z,57.26
2023-03-22T06:33:15.959Z,56.82
2023-03-22T06:35:42.927Z,56.18
2023-03-22T06:38:09.855Z,55.01
2023-03-22T06:40:36.688Z,54.65
2023-03-22T06:43:07.028Z,54.60
2023-03-22T06:45:34.380Z,54.06
2023-03-22T06:48:01.637Z,53.77
2023-03-22T06:50:29.474Z,52.77
2023-03-22T06:52:56.715Z,51.96
2023-03-22T06:55:24.242Z,51.73
2023-03-22T06:57:54.673Z,51.10
2023-03-22T07:00:21.805Z,50.30
2023-03-22T07:02:49.987Z,50.23
2023-03-22T07:05:18.640Z,50.03
2023-03-22T07:07:46.341Z,48.87
2023-03-22T07:10:13.484Z,50.89
2023-03-22T07:12:40.630Z,51.25
2023-03-22T07:15:08.351Z,50.00
2023-03-22T07:17:35.396Z,51.54
2023-03-22T07:20:03.847Z,52.96
2023-03-22T07:22:30.916Z,52.18
2023-03-22T07:25:00.598Z,52.57
2023-03-22T07:27:28.501Z,50.78
2023-03-22T07:29:55.322Z,49.16
2023-03-22T07:32:22.252Z,47.49
2023-03-22T07:34:49.176Z,47.33
2023-03-22T07:37:16.007Z,47.21
2023-03-22T07:39:42.862Z,46.69
2023-03-22T07:42:09.676Z,47.58
2023-03-22T07:44:36.669Z,48.17
2023-03-22T07:47:03.561Z,47.99
2023-03-22T07:49:31.599Z,47.60
2023-03-22T07:51:58.530Z,48.17
2023-03-22T07:54:33.301Z,47.96
2023-03-22T07:57:01.328Z,47.82
2023-03-22T07:59:28.748Z,46.88
2023-03-22T08:01:55.919Z,47.26
2023-03-22T08:04:23.346Z,47.08
2023-03-22T08:06:51.345Z,46.70
2023-03-22T08:09:18.364Z,46.67
2023-03-22T08:11:45.326Z,46.03
2023-03-22T08:14:12.165Z,46.67
2023-03-22T08:16:39.285Z,48.48
2023-03-22T08:19:06.671Z,46.72
2023-03-22T08:21:33.516Z,46.42
2023-03-22T08:24:00.396Z,45.12
2023-03-22T08:26:27.820Z,45.40
2023-03-22T08:28:54.810Z,44.89
2023-03-22T08:31:22.400Z,44.61
2023-03-22T08:33:49.461Z,42.61
2023-03-22T08:36:22.672Z,41.78
2023-03-22T08:38:50.377Z,40.78
2023-03-22T08:41:17.219Z,41.43
2023-03-22T08:43:44.250Z,42.39
2023-03-22T08:46:11.141Z,42.66
2023-03-22T08:48:38.480Z,41.28
2023-03-22T08:51:06.698Z,41.49
2023-03-22T08:53:33.610Z,42.57
2023-03-22T08:56:01.781Z,43.40
2023-03-22T08:58:28.616Z,44.24
2023-03-22T09:00:55.755Z,45.79
2023-03-22T09:03:24.846Z,44.47
2023-03-22T09:05:51.837Z,44.15
2023-03-22T09:08:19.909Z,44.48
2023-03-22T09:10:51.982Z,42.44
2023-03-22T09:13:19.826Z,42.93
2023-03-22T09:15:47.021Z,42.12
2023-03-22T09:18:15.252Z,42.09
2023-03-22T09:20:43.070Z,41.72
2023-03-22T09:23:10.279Z,40.08
2023-03-22T09:25:37.194Z,41.99
2023-03-22T09:28:04.849Z,42.29
2023-03-22T09:30:31.824Z,41.65
2023-03-22T09:32:58.644Z,40.01
2023-03-22T09:35:25.962Z,39.52
2023-03-22T09:37:54.413Z,38.84
2023-03-22T09:40:31.585Z,38.38
2023-03-22T09:43:06.643Z,39.84
2023-03-22T09:45:43.893Z,38.04
2023-03-22T09:48:19.438Z,39.08
2023-03-22T09:50:52.491Z,37.90
2023-03-22T09:53:22.149Z,37.93
2023-03-22T09:56:31.275Z,37.21
2023-03-22T09:59:06.848Z,37.26
2023-03-22T10:02:01.377Z,39.49
2023-03-22T10:05:04.113Z,38.56
2023-03-22T10:07:56.365Z,36.99
2023-03-22T10:10:24.832Z,36.81
2023-03-22T10:13:00.190Z,36.65
2023-03-22T10:15:40.035Z,37.51
2023-03-22T10:18:12.799Z,35.23
2023-03-22T10:21:09.744Z,35.25
2023-03-22T10:23:55.703Z,35.05
2023-03-22T10:26:31.969Z,33.70
2023-03-22T10:29:12.366Z,35.30
2023-03-22T10:31:42.977Z,33.21
2023-03-22T10:34:31.006Z,33.02
2023-03-22T10:37:01.183Z,35.36
2023-03-22T10:39:41.129Z,33.75
2023-03-22T10:42:15.951Z,35.49
2023-03-22T10:44:48.077Z,34.13
2023-03-22T10:47:44.900Z,33.46
2023-03-22T10:50:28.640Z,33.14
2023-03-22T10:53:18.520Z,33.14
2023-03-22T10:55:45.542Z,31.63
2023-03-22T10:58:21.603Z,31.43
2023-03-22T11:00:56.868Z,32.28
2023-03-22T11:03:52.951Z,32.95
2023-03-22T11:06:39.167Z,32.66
2023-03-22T11:09:22.418Z,31.54
2023-03-22T11:11:56.209Z,31.59
2023-03-22T11:14:42.360Z,31.56
2023-03-22T11:17:14.492Z,31.77
2023-03-22T11:19:53.177Z,29.62
2023-03-22T11:22:36.487Z,30.08
2023-03-22T11:25:07.562Z,32.21
2023-03-22T11:27:34.576Z,32.80
2023-03-22T11:30:24.714Z,33.46
2023-03-22T11:33:20.953Z,33.33
2023-03-22T11:35:58.152Z,35.61
2023-03-22T11:38:36.449Z,33.51
2023-03-22T11:41:42.737Z,31.22
2023-03-22T11:44:15.832Z,29.87
2023-03-22T11:46:57.864Z,31.41
2023-03-22T11:49:50.220Z,31.70
2023-03-22T11:52:23.019Z,29.55
2023-03-22T11:54:51.784Z,29.42
2023-03-22T11:57:25.229Z,30.06
2023-03-22T12:00:02.048Z,30.79
2023-03-22T12:02:41.821Z,30.54
2023-03-22T12:05:23.206Z,30.71
2023-03-22T12:08:09.650Z,29.33
2023-03-22T12:10:44.057Z,29.03
2023-03-22T12:13:22.562Z,29.72
2023-03-22T12:15:55.831Z,29.79
2023-03-22T12:18:57.625Z,28.90
2023-03-22T12:21:24.529Z,27.90
2023-03-22T12:24:01.030Z,27.42
2023-03-22T12:26:30.928Z,27.75
2023-03-22T12:29:08.193Z,26.71
2023-03-22T12:31:45.856Z,27.26
2023-03-22T12:34:19.795Z,28.93
2023-03-22T12:36:51.658Z,27.17
2023-03-22T12:39:26.928Z,25.54
2023-03-22T12:41:57.947Z,25.22
2023-03-22T12:44:55.522Z,23.98
2023-03-22T12:47:43.504Z,25.04
2023-03-22T12:50:33.388Z,24.46
2023-03-22T12:53:02.445Z,22.78
2023-03-22T12:55:49.647Z,22.25
2023-03-22T12:58:22.923Z,23.77
2023-03-22T13:01:12.286Z,22.15
2023-03-22T13:03:52.568Z,22.77
2023-03-22T13:06:31.860Z,22.63
2023-03-22T13:09:08.830Z,21.86
2023-03-22T13:11:36.275Z,20.93
2023-03-22T13:14:03.295Z,21.05
2023-03-22T13:16:52.072Z,22.27
2023-03-22T13:19:36.406Z,21.69
2023-03-22T13:22:28.954Z,22.72
2023-03-22T13:25:12.589Z,20.92
2023-03-22T13:27:45.548Z,19.89
2023-03-22T13:30:20.362Z,20.24
2023-03-22T13:33:10.410Z,20.70
2023-03-22T13:36:23.853Z,22.28
2023-03-22T13:39:03.051Z,21.91
2023-03-22T13:41:33.056Z,21.71
2023-03-22T13:44:04.820Z,20.91
2023-03-22T13:46:36.308Z,19.40
2023-03-22T13:49:03.419Z,19.40
2023-03-22T13:51:32.695Z,19.76
2023-03-22T13:54:07.279Z,21.02
2023-03-22T13:57:00.964Z,21.58
2023-03-22T13:59:27.912Z,21.42
2023-03-22T14:02:04.909Z,20.99
2023-03-22T14:04:53.086Z,21.68
2023-03-22T14:07:22.766Z,20.83
2023-03-22T14:09:58.753Z,20.29
2023-03-22T14:12:44.565Z,19.78
2023-03-22T14:15:19.157Z,19.38
2023-03-22T14:17:56.945Z,19.21
2023-03-22T14:20:29.973Z,19.59
